Bard, California
Current Conditions -  °F | °C
As of 5:57 AM on Thursday 18 Dec 2014 (Local Time) from KNYL Reporting Station
Scattered Clouds Scattered Clouds  
Wind Chill: 50°   Ceiling: Unl
Heat Index: 50°   Visibility: 8mi
Dew Point: 49°   Wind: 0mph
Humidity: 96%   Direction: NA
Pressure: 30.11"   Gusts: NA
Location:  32.79°N, 114.56°W
Report Text: KNYL 181357Z 00000KT 8SM FEW120 SCT250 10/09 A3011 RMK AO2 SLP197 T01000094
Loading
Personal Weather Stations






























Interactive Weather Map New forecast layout! Learn more

10-Day Weather Forecast

Advertisements
Track Severe Weather on mobile